sensor_id;sensor_type;location;lat;lon;timestamp;pressure;altitude;pressure_sealevel;temperature;humidity
25722;BME280;13578;53.450;15.496;2023-09-12T00:01:43;99419.97;;;15.67;100.00
25722;BME280;13578;53.450;15.496;2023-09-12T00:04:44;99421.50;;;15.70;100.00
25722;BME280;13578;53.450;15.496;2023-09-12T00:07:45;99428.97;;;15.69;100.00
25722;BME280;13578;53.450;15.496;2023-09-12T00:10:45;99428.13;;;15.61;100.00
25722;BME280;13578;53.450;15.496;2023-09-12T00:13:46;99423.09;;;15.64;100.00
25722;BME280;13578;53.450;15.496;2023-09-12T00:16:47;99432.44;;;15.63;100.00
25722;BME280;13578;53.450;15.496;2023-09-12T00:19:47;99431.94;;;15.60;100.00
25722;BME280;13578;53.450;15.496;2023-09-12T00:22:48;99436.78;;;15.57;100.00
25722;BME280;13578;53.450;15.496;2023-09-12T00:25:50;99443.53;;;15.55;100.00
25722;BME280;13578;53.450;15.496;2023-09-12T00:28:52;99438.56;;;15.50;100.00
25722;BME280;13578;53.450;15.496;2023-09-12T00:31:52;99430.44;;;15.49;100.00
25722;BME280;13578;53.450;15.496;2023-09-12T00:34:53;99425.56;;;15.51;100.00
25722;BME280;13578;53.450;15.496;2023-09-12T00:37:53;99426.25;;;15.53;100.00
25722;BME280;13578;53.450;15.496;2023-09-12T00:40:54;99423.91;;;15.42;100.00
25722;BME280;13578;53.450;15.496;2023-09-12T00:43:55;99418.91;;;15.37;100.00
25722;BME280;13578;53.450;15.496;2023-09-12T00:46:56;99412.50;;;15.36;100.00
25722;BME280;13578;53.450;15.496;2023-09-12T00:49:59;99412.16;;;15.39;100.00
25722;BME280;13578;53.450;15.496;2023-09-12T00:53:02;99406.97;;;15.36;100.00
25722;BME280;13578;53.450;15.496;2023-09-12T00:56:04;99403.16;;;15.37;100.00
25722;BME280;13578;53.450;15.496;2023-09-12T00:59:05;99398.53;;;15.38;100.00
25722;BME280;13578;53.450;15.496;2023-09-12T01:02:06;99406.81;;;15.38;100.00
25722;BME280;13578;53.450;15.496;2023-09-12T01:05:07;99414.22;;;15.37;100.00
25722;BME280;13578;53.450;15.496;2023-09-12T01:08:08;99412.88;;;15.33;100.00
25722;BME280;13578;53.450;15.496;2023-09-12T01:11:09;99415.97;;;15.30;100.00
25722;BME280;13578;53.450;15.496;2023-09-12T01:14:10;99415.97;;;15.30;100.00
25722;BME280;13578;53.450;15.496;2023-09-12T01:17:10;99428.06;;;15.29;100.00
25722;BME280;13578;53.450;15.496;2023-09-12T01:20:15;99424.16;;;15.23;100.00
25722;BME280;13578;53.450;15.496;2023-09-12T01:26:35;99435.88;;;15.17;100.00
25722;BME280;13578;53.450;15.496;2023-09-12T01:29:43;99433.31;;;15.16;100.00
25722;BME280;13578;53.450;15.496;2023-09-12T01:32:46;99434.34;;;15.06;100.00
25722;BME280;13578;53.450;15.496;2023-09-12T01:35:47;99437.66;;;15.02;100.00
25722;BME280;13578;53.450;15.496;2023-09-12T01:38:48;99439.38;;;15.03;100.00
25722;BME280;13578;53.450;15.496;2023-09-12T01:41:49;99447.84;;;15.09;100.00
25722;BME280;13578;53.450;15.496;2023-09-12T01:44:55;99447.34;;;14.98;100.00
25722;BME280;13578;53.450;15.496;2023-09-12T01:47:56;99440.59;;;14.92;100.00
25722;BME280;13578;53.450;15.496;2023-09-12T01:50:59;99431.28;;;14.93;100.00
25722;BME280;13578;53.450;15.496;2023-09-12T01:54:03;99438.03;;;14.99;100.00
25722;BME280;13578;53.450;15.496;2023-09-12T01:57:04;99426.47;;;14.95;100.00
25722;BME280;13578;53.450;15.496;2023-09-12T02:00:06;99431.63;;;14.98;100.00
25722;BME280;13578;53.450;15.496;2023-09-12T02:03:07;99434.72;;;15.03;100.00
25722;BME280;13578;53.450;15.496;2023-09-12T02:06:07;99434.72;;;15.03;100.00
25722;BME280;13578;53.450;15.496;2023-09-12T02:09:08;99430.06;;;15.04;100.00
25722;BME280;13578;53.450;15.496;2023-09-12T02:12:09;99423.50;;;14.97;100.00
25722;BME280;13578;53.450;15.496;2023-09-12T02:15:10;99422.28;;;14.99;100.00
25722;BME280;13578;53.450;15.496;2023-09-12T02:18:10;99411.44;;;14.98;100.00
25722;BME280;13578;53.450;15.496;2023-09-12T02:21:11;99420.41;;;14.91;100.00
25722;BME280;13578;53.450;15.496;2023-09-12T02:24:12;99420.09;;;14.86;100.00
25722;BME280;13578;53.450;15.496;2023-09-12T02:27:13;99417.16;;;14.88;100.00
25722;BME280;13578;53.450;15.496;2023-09-12T02:30:13;99417.50;;;14.85;100.00
25722;BME280;13578;53.450;15.496;2023-09-12T02:33:14;99411.97;;;14.85;100.00
25722;BME280;13578;53.450;15.496;2023-09-12T02:36:14;99414.41;;;14.80;100.00
25722;BME280;13578;53.450;15.496;2023-09-12T02:39:15;99414.41;;;14.80;100.00
25722;BME280;13578;53.450;15.496;2023-09-12T02:42:16;99419.91;;;14.80;100.00
25722;BME280;13578;53.450;15.496;2023-09-12T02:45:17;99419.75;;;14.81;100.00
25722;BME280;13578;53.450;15.496;2023-09-12T02:48:17;99415.78;;;14.75;100.00
25722;BME280;13578;53.450;15.496;2023-09-12T02:51:18;99414.91;;;14.75;100.00
25722;BME280;13578;53.450;15.496;2023-09-12T02:54:18;99411.13;;;14.76;100.00
25722;BME280;13578;53.450;15.496;2023-09-12T02:57:19;99410.28;;;14.75;100.00
25722;BME280;13578;53.450;15.496;2023-09-12T03:00:20;99411.97;;;14.76;100.00
25722;BME280;13578;53.450;15.496;2023-09-12T03:03:20;99407.84;;;14.72;100.00
25722;BME280;13578;53.450;15.496;2023-09-12T03:06:21;99418.91;;;14.72;100.00
25722;BME280;13578;53.450;15.496;2023-09-12T03:09:21;99412.34;;;14.73;100.00
25722;BME280;13578;53.450;15.496;2023-09-12T03:12:23;99418.56;;;14.75;100.00
25722;BME280;13578;53.450;15.496;2023-09-12T03:15:24;99414.06;;;14.74;100.00
25722;BME280;13578;53.450;15.496;2023-09-12T03:18:24;99405.25;;;14.79;100.00
25722;BME280;13578;53.450;15.496;2023-09-12T03:21:25;99410.59;;;14.81;100.00
25722;BME280;13578;53.450;15.496;2023-09-12T03:24:25;99408.19;;;14.77;100.00
25722;BME280;13578;53.450;15.496;2023-09-12T03:27:29;99406.13;;;14.71;100.00
25722;BME280;13578;53.450;15.496;2023-09-12T03:30:29;99399.06;;;14.69;100.00
25722;BME280;13578;53.450;15.496;2023-09-12T03:33:30;99394.75;;;14.66;100.00
25722;BME280;13578;53.450;15.496;2023-09-12T03:36:31;99398.50;;;14.65;100.00
25722;BME280;13578;53.450;15.496;2023-09-12T03:39:31;99397.81;;;14.63;100.00
25722;BME280;13578;53.450;15.496;2023-09-12T03:42:32;99398.19;;;14.68;100.00
25722;BME280;13578;53.450;15.496;2023-09-12T03:45:33;99391.25;;;14.64;100.00
25722;BME280;13578;53.450;15.496;2023-09-12T03:48:34;99385.22;;;14.60;100.00
25722;BME280;13578;53.450;15.496;2023-09-12T03:51:36;99382.47;;;14.60;100.00
25722;BME280;13578;53.450;15.496;2023-09-12T03:54:38;99388.50;;;14.56;100.00
25722;BME280;13578;53.450;15.496;2023-09-12T03:57:39;99384.00;;;14.55;100.00
25722;BME280;13578;53.450;15.496;2023-09-12T04:00:39;99391.44;;;14.54;100.00
25722;BME280;13578;53.450;15.496;2023-09-12T04:03:40;99387.13;;;14.52;100.00
25722;BME280;13578;53.450;15.496;2023-09-12T04:06:41;99385.22;;;14.52;100.00
25722;BME280;13578;53.450;15.496;2023-09-12T04:09:41;99383.69;;;14.50;100.00
25722;BME280;13578;53.450;15.496;2023-09-12T04:12:42;99384.19;;;14.53;100.00
25722;BME280;13578;53.450;15.496;2023-09-12T04:15:43;99376.94;;;14.52;100.00
25722;BME280;13578;53.450;15.496;2023-09-12T04:18:44;99374.88;;;14.54;100.00
25722;BME280;13578;53.450;15.496;2023-09-12T04:21:44;99366.09;;;14.42;100.00
25722;BME280;13578;53.450;15.496;2023-09-12T04:24:45;99367.81;;;14.43;100.00
25722;BME280;13578;53.450;15.496;2023-09-12T04:27:46;99350.22;;;14.36;100.00
25722;BME280;13578;53.450;15.496;2023-09-12T04:30:46;99349.84;;;14.39;100.00
25722;BME280;13578;53.450;15.496;2023-09-12T04:33:47;99345.03;;;14.41;100.00
25722;BME280;13578;53.450;15.496;2023-09-12T04:36:48;99336.75;;;14.41;100.00
25722;BME280;13578;53.450;15.496;2023-09-12T04:39:48;99342.59;;;14.46;100.00
25722;BME280;13578;53.450;15.496;2023-09-12T04:42:49;99327.63;;;14.49;100.00
25722;BME280;13578;53.450;15.496;2023-09-12T04:45:50;99322.22;;;14.56;100.00
25722;BME280;13578;53.450;15.496;2023-09-12T04:48:50;99322.75;;;14.59;100.00
25722;BME280;13578;53.450;15.496;2023-09-12T04:51:51;99332.97;;;14.67;100.00
25722;BME280;13578;53.450;15.496;2023-09-12T04:54:52;99330.19;;;14.67;100.00
25722;BME280;13578;53.450;15.496;2023-09-12T04:57:53;99331.88;;;14.76;100.00
25722;BME280;13578;53.450;15.496;2023-09-12T05:00:54;99333.44;;;14.79;100.00
25722;BME280;13578;53.450;15.496;2023-09-12T05:03:55;99336.00;;;14.89;100.00
25722;BME280;13578;53.450;15.496;2023-09-12T05:06:56;99341.50;;;14.97;100.00
25722;BME280;13578;53.450;15.496;2023-09-12T05:09:57;99339.06;;;15.02;100.00
25722;BME280;13578;53.450;15.496;2023-09-12T05:12:57;99349.38;;;15.08;100.00
25722;BME280;13578;53.450;15.496;2023-09-12T05:15:58;99361.09;;;15.19;100.00
25722;BME280;13578;53.450;15.496;2023-09-12T05:18:59;99375.25;;;15.24;100.00
25722;BME280;13578;53.450;15.496;2023-09-12T05:21:59;99380.44;;;15.27;100.00
25722;BME280;13578;53.450;15.496;2023-09-12T05:25:00;99390.38;;;15.36;100.00
25722;BME280;13578;53.450;15.496;2023-09-12T05:28:01;99405.56;;;15.49;100.00
25722;BME280;13578;53.450;15.496;2023-09-12T05:31:01;99417.75;;;15.63;100.00
25722;BME280;13578;53.450;15.496;2023-09-12T05:34:03;99418.88;;;15.77;100.00
25722;BME280;13578;53.450;15.496;2023-09-12T05:37:03;99419.53;;;15.87;100.00
25722;BME280;13578;53.450;15.496;2023-09-12T05:40:05;99428.47;;;15.97;100.00
25722;BME280;13578;53.450;15.496;2023-09-12T05:43:06;99438.97;;;16.10;100.00
25722;BME280;13578;53.450;15.496;2023-09-12T05:46:07;99430.41;;;16.20;100.00
25722;BME280;13578;53.450;15.496;2023-09-12T05:49:07;99431.00;;;16.30;100.00
25722;BME280;13578;53.450;15.496;2023-09-12T05:52:08;99440.97;;;16.40;100.00
25722;BME280;13578;53.450;15.496;2023-09-12T05:55:09;99432.91;;;16.53;100.00
25722;BME280;13578;53.450;15.496;2023-09-12T05:58:09;99438.03;;;16.64;100.00
25722;BME280;13578;53.450;15.496;2023-09-12T06:01:10;99450.16;;;16.78;100.00
25722;BME280;13578;53.450;15.496;2023-09-12T06:04:11;99434.84;;;16.91;100.00
25722;BME280;13578;53.450;15.496;2023-09-12T06:07:11;99448.03;;;17.04;100.00
25722;BME280;13578;53.450;15.496;2023-09-12T06:10:12;99449.13;;;17.18;100.00
25722;BME280;13578;53.450;15.496;2023-09-12T06:13:13;99456.78;;;17.30;100.00
25722;BME280;13578;53.450;15.496;2023-09-12T06:16:14;99456.41;;;17.49;100.00
25722;BME280;13578;53.450;15.496;2023-09-12T06:19:14;99461.88;;;17.57;100.00
25722;BME280;13578;53.450;15.496;2023-09-12T06:22:15;99469.59;;;17.76;100.00
25722;BME280;13578;53.450;15.496;2023-09-12T06:25:17;99483.16;;;17.86;100.00
25722;BME280;13578;53.450;15.496;2023-09-12T06:28:28;99494.16;;;17.94;100.00
25722;BME280;13578;53.450;15.496;2023-09-12T06:31:29;99500.31;;;18.05;100.00
25722;BME280;13578;53.450;15.496;2023-09-12T06:34:30;99498.25;;;18.14;100.00
25722;BME280;13578;53.450;15.496;2023-09-12T06:37:30;99512.50;;;18.25;100.00
25722;BME280;13578;53.450;15.496;2023-09-12T06:40:31;99516.91;;;18.35;100.00
25722;BME280;13578;53.450;15.496;2023-09-12T06:43:32;99526.03;;;18.50;100.00
25722;BME280;13578;53.450;15.496;2023-09-12T06:46:32;99524.00;;;18.59;100.00
25722;BME280;13578;53.450;15.496;2023-09-12T06:49:36;99529.47;;;18.74;100.00
25722;BME280;13578;53.450;15.496;2023-09-12T06:52:37;99532.38;;;18.87;100.00
25722;BME280;13578;53.450;15.496;2023-09-12T06:55:38;99531.47;;;19.02;100.00
25722;BME280;13578;53.450;15.496;2023-09-12T06:58:39;99533.97;;;19.18;100.00
25722;BME280;13578;53.450;15.496;2023-09-12T07:01:39;99539.00;;;19.30;100.00
25722;BME280;13578;53.450;15.496;2023-09-12T07:04:40;99538.69;;;19.46;100.00
25722;BME280;13578;53.450;15.496;2023-09-12T07:07:41;99539.69;;;19.67;100.00
25722;BME280;13578;53.450;15.496;2023-09-12T07:10:45;99541.75;;;19.87;100.00
25722;BME280;13578;53.450;15.496;2023-09-12T07:13:48;99560.03;;;20.03;100.00
25722;BME280;13578;53.450;15.496;2023-09-12T07:16:48;99574.69;;;20.18;100.00
25722;BME280;13578;53.450;15.496;2023-09-12T07:19:49;99577.13;;;20.35;100.00
25722;BME280;13578;53.450;15.496;2023-09-12T07:22:49;99575.91;;;20.51;100.00
25722;BME280;13578;53.450;15.496;2023-09-12T07:25:50;99577.03;;;20.63;100.00
25722;BME280;13578;53.450;15.496;2023-09-12T07:28:51;99576.44;;;20.74;100.00
25722;BME280;13578;53.450;15.496;2023-09-12T07:31:53;99582.28;;;20.86;100.00
25722;BME280;13578;53.450;15.496;2023-09-12T07:34:53;99583.78;;;21.02;100.00
25722;BME280;13578;53.450;15.496;2023-09-12T07:37:54;99583.38;;;21.19;100.00
25722;BME280;13578;53.450;15.496;2023-09-12T07:40:55;99591.09;;;21.30;100.00
25722;BME280;13578;53.450;15.496;2023-09-12T07:43:55;99597.34;;;21.39;100.00
25722;BME280;13578;53.450;15.496;2023-09-12T07:46:56;99585.97;;;21.54;100.00
25722;BME280;13578;53.450;15.496;2023-09-12T07:49:57;99591.13;;;21.64;100.00
25722;BME280;13578;53.450;15.496;2023-09-12T07:52:59;99597.56;;;21.78;100.00
25722;BME280;13578;53.450;15.496;2023-09-12T07:56:00;99591.72;;;21.93;100.00
25722;BME280;13578;53.450;15.496;2023-09-12T07:59:00;99600.97;;;22.07;100.00
25722;BME280;13578;53.450;15.496;2023-09-12T08:02:01;99599.19;;;22.19;100.00
25722;BME280;13578;53.450;15.496;2023-09-12T08:05:02;99600.91;;;22.27;100.00
25722;BME280;13578;53.450;15.496;2023-09-12T08:08:03;99607.97;;;22.43;100.00
25722;BME280;13578;53.450;15.496;2023-09-12T08:11:03;99607.28;;;22.54;100.00
25722;BME280;13578;53.450;15.496;2023-09-12T08:14:04;99609.38;;;22.65;100.00
25722;BME280;13578;53.450;15.496;2023-09-12T08:17:05;99605.03;;;22.76;100.00
25722;BME280;13578;53.450;15.496;2023-09-12T08:20:07;99605.81;;;22.90;100.00
25722;BME280;13578;53.450;15.496;2023-09-12T08:23:10;99594.75;;;23.02;100.00
25722;BME280;13578;53.450;15.496;2023-09-12T08:26:13;99603.50;;;23.19;100.00
25722;BME280;13578;53.450;15.496;2023-09-12T08:29:14;99588.78;;;23.30;100.00
25722;BME280;13578;53.450;15.496;2023-09-12T08:32:15;99605.06;;;23.40;100.00
25722;BME280;13578;53.450;15.496;2023-09-12T08:35:15;99604.13;;;23.46;100.00
25722;BME280;13578;53.450;15.496;2023-09-12T08:38:16;99605.19;;;23.52;100.00
25722;BME280;13578;53.450;15.496;2023-09-12T08:41:17;99585.94;;;23.62;100.00
25722;BME280;13578;53.450;15.496;2023-09-12T08:44:21;99583.22;;;23.74;100.00
25722;BME280;13578;53.450;15.496;2023-09-12T08:47:22;99588.31;;;23.84;100.00
25722;BME280;13578;53.450;15.496;2023-09-12T08:50:24;99586.28;;;23.91;100.00
25722;BME280;13578;53.450;15.496;2023-09-12T08:53:25;99592.56;;;23.93;100.00
25722;BME280;13578;53.450;15.496;2023-09-12T08:56:25;99594.13;;;24.08;100.00
25722;BME280;13578;53.450;15.496;2023-09-12T08:59:26;99580.25;;;24.13;100.00
25722;BME280;13578;53.450;15.496;2023-09-12T09:02:30;99582.13;;;24.19;100.00
25722;BME280;13578;53.450;15.496;2023-09-12T09:05:32;99575.13;;;24.29;100.00
25722;BME280;13578;53.450;15.496;2023-09-12T09:08:34;99576.50;;;24.38;100.00
25722;BME280;13578;53.450;15.496;2023-09-12T09:11:35;99582.44;;;24.48;100.00
25722;BME280;13578;53.450;15.496;2023-09-12T09:14:36;99598.09;;;24.56;100.00
25722;BME280;13578;53.450;15.496;2023-09-12T09:17:36;99586.13;;;24.61;100.00
25722;BME280;13578;53.450;15.496;2023-09-12T09:20:37;99597.44;;;24.72;100.00
25722;BME280;13578;53.450;15.496;2023-09-12T09:23:45;99580.88;;;24.71;100.00
25722;BME280;13578;53.450;15.496;2023-09-12T09:26:48;99574.69;;;24.81;100.00
25722;BME280;13578;53.450;15.496;2023-09-12T09:29:49;99574.25;;;24.96;100.00
25722;BME280;13578;53.450;15.496;2023-09-12T09:32:54;99565.63;;;25.09;100.00
25722;BME280;13578;53.450;15.496;2023-09-12T09:36:03;99567.25;;;25.29;100.00
25722;BME280;13578;53.450;15.496;2023-09-12T09:39:04;99563.81;;;25.27;100.00
25722;BME280;13578;53.450;15.496;2023-09-12T09:42:10;99565.53;;;25.28;100.00
25722;BME280;13578;53.450;15.496;2023-09-12T09:45:12;99571.53;;;25.31;100.00
25722;BME280;13578;53.450;15.496;2023-09-12T09:48:23;99555.84;;;25.42;100.00
25722;BME280;13578;53.450;15.496;2023-09-12T09:51:25;99563.81;;;25.57;100.00
25722;BME280;13578;53.450;15.496;2023-09-12T09:54:26;99547.16;;;25.56;100.00
25722;BME280;13578;53.450;15.496;2023-09-12T09:57:27;99545.34;;;25.61;100.00
25722;BME280;13578;53.450;15.496;2023-09-12T10:00:29;99553.41;;;25.58;100.00
25722;BME280;13578;53.450;15.496;2023-09-12T10:03:31;99568.09;;;25.72;100.00
25722;BME280;13578;53.450;15.496;2023-09-12T10:06:35;99539.63;;;25.80;100.00
25722;BME280;13578;53.450;15.496;2023-09-12T10:09:37;99540.72;;;25.79;100.00
25722;BME280;13578;53.450;15.496;2023-09-12T10:12:45;99549.63;;;25.88;100.00
25722;BME280;13578;53.450;15.496;2023-09-12T10:15:49;99548.28;;;25.90;100.00
25722;BME280;13578;53.450;15.496;2023-09-12T10:22:27;99523.81;;;26.14;100.00
25722;BME280;13578;53.450;15.496;2023-09-12T10:25:29;99541.44;;;26.10;100.00
25722;BME280;13578;53.450;15.496;2023-09-12T10:28:30;99541.81;;;26.13;100.00
25722;BME280;13578;53.450;15.496;2023-09-12T10:31:32;99557.69;;;26.08;100.00
25722;BME280;13578;53.450;15.496;2023-09-12T10:34:34;99560.13;;;26.16;100.00
25722;BME280;13578;53.450;15.496;2023-09-12T10:37:37;99547.91;;;26.22;100.00
25722;BME280;13578;53.450;15.496;2023-09-12T10:40:42;99533.56;;;26.36;100.00
25722;BME280;13578;53.450;15.496;2023-09-12T10:43:45;99547.88;;;26.34;100.00
25722;BME280;13578;53.450;15.496;2023-09-12T10:46:53;99544.16;;;26.45;100.00
25722;BME280;13578;53.450;15.496;2023-09-12T10:49:56;99534.72;;;26.52;100.00
25722;BME280;13578;53.450;15.496;2023-09-12T10:53:11;99525.88;;;26.60;100.00
25722;BME280;13578;53.450;15.496;2023-09-12T10:59:13;99548.91;;;26.57;100.00
25722;BME280;13578;53.450;15.496;2023-09-12T11:02:46;99552.41;;;26.76;100.00
25722;BME280;13578;53.450;15.496;2023-09-12T11:05:51;99542.59;;;26.78;100.00
25722;BME280;13578;53.450;15.496;2023-09-12T11:12:34;99523.25;;;26.82;100.00
25722;BME280;13578;53.450;15.496;2023-09-12T11:15:35;99528.47;;;26.90;100.00
25722;BME280;13578;53.450;15.496;2023-09-12T11:22:26;99523.34;;;27.04;100.00
25722;BME280;13578;53.450;15.496;2023-09-12T11:25:27;99523.56;;;27.15;100.00
25722;BME280;13578;53.450;15.496;2023-09-12T11:28:29;99504.94;;;27.14;100.00
25722;BME280;13578;53.450;15.496;2023-09-12T11:31:30;99510.56;;;27.14;100.00
25722;BME280;13578;53.450;15.496;2023-09-12T11:34:43;99506.91;;;27.13;100.00
25722;BME280;13578;53.450;15.496;2023-09-12T11:37:58;99512.63;;;27.01;100.00
25722;BME280;13578;53.450;15.496;2023-09-12T11:41:00;99529.78;;;27.17;100.00
25722;BME280;13578;53.450;15.496;2023-09-12T11:44:03;99529.59;;;27.23;100.00
25722;BME280;13578;53.450;15.496;2023-09-12T11:47:04;99489.75;;;27.32;100.00
25722;BME280;13578;53.450;15.496;2023-09-12T11:50:07;99506.03;;;27.30;100.00
25722;BME280;13578;53.450;15.496;2023-09-12T11:53:09;99514.69;;;27.23;100.00
25722;BME280;13578;53.450;15.496;2023-09-12T11:56:10;99492.22;;;27.28;100.00
25722;BME280;13578;53.450;15.496;2023-09-12T11:59:11;99511.13;;;27.45;100.00
25722;BME280;13578;53.450;15.496;2023-09-12T12:02:11;99504.53;;;27.56;100.00
25722;BME280;13578;53.450;15.496;2023-09-12T12:05:12;99491.22;;;27.51;100.00
25722;BME280;13578;53.450;15.496;2023-09-12T12:08:14;99505.56;;;27.50;100.00
25722;BME280;13578;53.450;15.496;2023-09-12T12:11:16;99507.19;;;27.46;100.00
25722;BME280;13578;53.450;15.496;2023-09-12T12:14:17;99494.09;;;27.73;100.00
25722;BME280;13578;53.450;15.496;2023-09-12T12:17:19;99497.63;;;27.64;100.00
25722;BME280;13578;53.450;15.496;2023-09-12T12:20:20;99500.66;;;27.62;100.00
25722;BME280;13578;53.450;15.496;2023-09-12T12:23:21;99477.72;;;27.53;98.03
25722;BME280;13578;53.450;15.496;2023-09-12T12:26:21;99515.66;;;27.46;100.00
25722;BME280;13578;53.450;15.496;2023-09-12T12:29:22;99506.47;;;27.72;100.00
25722;BME280;13578;53.450;15.496;2023-09-12T12:32:22;99506.97;;;27.69;100.00
25722;BME280;13578;53.450;15.496;2023-09-12T12:35:24;99503.91;;;27.71;100.00
25722;BME280;13578;53.450;15.496;2023-09-12T12:38:24;99496.91;;;27.73;100.00
25722;BME280;13578;53.450;15.496;2023-09-12T12:41:29;99499.47;;;27.75;100.00
25722;BME280;13578;53.450;15.496;2023-09-12T12:44:33;99511.06;;;27.79;100.00
25722;BME280;13578;53.450;15.496;2023-09-12T12:47:41;99492.00;;;27.86;100.00
25722;BME280;13578;53.450;15.496;2023-09-12T12:50:42;99494.22;;;27.84;100.00
25722;BME280;13578;53.450;15.496;2023-09-12T12:53:48;99504.47;;;27.90;100.00
25722;BME280;13578;53.450;15.496;2023-09-12T12:56:51;99488.69;;;27.89;100.00
25722;BME280;13578;53.450;15.496;2023-09-12T12:59:53;99463.69;;;27.98;100.00
25722;BME280;13578;53.450;15.496;2023-09-12T13:02:54;99494.97;;;27.96;100.00
25722;BME280;13578;53.450;15.496;2023-09-12T13:05:55;99463.19;;;28.01;97.45
25722;BME280;13578;53.450;15.496;2023-09-12T13:08:56;99454.44;;;28.02;97.14
25722;BME280;13578;53.450;15.496;2023-09-12T13:11:57;99461.16;;;27.96;100.00
25722;BME280;13578;53.450;15.496;2023-09-12T13:14:58;99456.66;;;28.00;97.52
25722;BME280;13578;53.450;15.496;2023-09-12T13:18:00;99464.34;;;28.05;100.00
25722;BME280;13578;53.450;15.496;2023-09-12T13:21:01;99456.75;;;28.05;100.00
25722;BME280;13578;53.450;15.496;2023-09-12T13:24:02;99462.25;;;27.95;100.00
25722;BME280;13578;53.450;15.496;2023-09-12T13:27:02;99449.88;;;27.96;100.00
25722;BME280;13578;53.450;15.496;2023-09-12T13:30:04;99469.00;;;27.94;100.00
25722;BME280;13578;53.450;15.496;2023-09-12T13:33:05;99453.06;;;28.05;100.00
25722;BME280;13578;53.450;15.496;2023-09-12T13:36:06;99450.31;;;27.88;100.00
25722;BME280;13578;53.450;15.496;2023-09-12T13:39:07;99442.31;;;27.80;100.00
25722;BME280;13578;53.450;15.496;2023-09-12T13:42:07;99458.88;;;27.76;100.00
25722;BME280;13578;53.450;15.496;2023-09-12T13:45:10;99444.81;;;27.76;100.00
25722;BME280;13578;53.450;15.496;2023-09-12T13:48:11;99435.69;;;27.69;100.00
25722;BME280;13578;53.450;15.496;2023-09-12T13:51:12;99462.50;;;27.71;100.00
25722;BME280;13578;53.450;15.496;2023-09-12T13:54:13;99456.00;;;27.71;100.00
25722;BME280;13578;53.450;15.496;2023-09-12T13:57:17;99430.50;;;27.61;98.83
25722;BME280;13578;53.450;15.496;2023-09-12T14:00:17;99452.75;;;27.62;100.00
25722;BME280;13578;53.450;15.496;2023-09-12T14:03:18;99417.50;;;27.60;96.90
25722;BME280;13578;53.450;15.496;2023-09-12T14:06:19;99415.28;;;27.62;94.98
25722;BME280;13578;53.450;15.496;2023-09-12T14:09:19;99445.50;;;27.66;100.00
25722;BME280;13578;53.450;15.496;2023-09-12T14:12:20;99444.41;;;27.67;100.00
25722;BME280;13578;53.450;15.496;2023-09-12T14:15:20;99453.75;;;27.73;100.00
25722;BME280;13578;53.450;15.496;2023-09-12T14:18:21;99433.34;;;27.83;97.84
25722;BME280;13578;53.450;15.496;2023-09-12T14:21:22;99442.03;;;27.81;99.52
25722;BME280;13578;53.450;15.496;2023-09-12T14:24:22;99441.91;;;27.71;99.70
25722;BME280;13578;53.450;15.496;2023-09-12T14:27:23;99464.97;;;27.68;100.00
25722;BME280;13578;53.450;15.496;2023-09-12T14:30:24;99464.56;;;27.59;100.00
25722;BME280;13578;53.450;15.496;2023-09-12T14:33:27;99447.78;;;27.47;100.00
25722;BME280;13578;53.450;15.496;2023-09-12T14:36:27;99466.78;;;27.40;100.00
25722;BME280;13578;53.450;15.496;2023-09-12T14:39:29;99434.97;;;27.22;97.18
25722;BME280;13578;53.450;15.496;2023-09-12T14:42:29;99437.69;;;27.17;94.39
25722;BME280;13578;53.450;15.496;2023-09-12T14:45:33;99476.28;;;27.17;100.00
25722;BME280;13578;53.450;15.496;2023-09-12T14:48:33;99490.78;;;27.08;100.00
25722;BME280;13578;53.450;15.496;2023-09-12T14:51:36;99503.66;;;27.04;100.00
25722;BME280;13578;53.450;15.496;2023-09-12T14:54:37;99492.66;;;27.03;100.00
25722;BME280;13578;53.450;15.496;2023-09-12T14:57:38;99501.38;;;27.01;100.00
25722;BME280;13578;53.450;15.496;2023-09-12T15:00:38;99503.72;;;26.92;100.00
25722;BME280;13578;53.450;15.496;2023-09-12T15:03:39;99493.75;;;26.85;100.00
25722;BME280;13578;53.450;15.496;2023-09-12T15:06:40;99506.25;;;26.77;100.00
25722;BME280;13578;53.450;15.496;2023-09-12T15:09:41;99463.56;;;26.68;100.00
25722;BME280;13578;53.450;15.496;2023-09-12T15:12:41;99461.50;;;26.63;100.00
25722;BME280;13578;53.450;15.496;2023-09-12T15:15:42;99467.41;;;26.62;100.00
25722;BME280;13578;53.450;15.496;2023-09-12T15:18:43;99472.94;;;26.57;100.00
25722;BME280;13578;53.450;15.496;2023-09-12T15:21:44;99480.41;;;26.51;100.00
25722;BME280;13578;53.450;15.496;2023-09-12T15:24:45;99480.56;;;26.44;100.00
25722;BME280;13578;53.450;15.496;2023-09-12T15:27:45;99479.38;;;26.40;100.00
25722;BME280;13578;53.450;15.496;2023-09-12T15:30:46;99486.84;;;26.35;100.00
25722;BME280;13578;53.450;15.496;2023-09-12T15:33:47;99513.59;;;26.37;100.00
25722;BME280;13578;53.450;15.496;2023-09-12T15:36:48;99515.22;;;26.33;100.00
25722;BME280;13578;53.450;15.496;2023-09-12T15:39:48;99513.88;;;26.24;100.00
25722;BME280;13578;53.450;15.496;2023-09-12T15:42:49;99506.34;;;26.12;100.00
25722;BME280;13578;53.450;15.496;2023-09-12T15:45:50;99508.53;;;25.98;100.00
25722;BME280;13578;53.450;15.496;2023-09-12T15:48:50;99505.53;;;25.88;100.00
25722;BME280;13578;53.450;15.496;2023-09-12T15:51:51;99507.84;;;25.79;100.00
25722;BME280;13578;53.450;15.496;2023-09-12T15:54:52;99507.38;;;25.71;100.00